Decoded Metar for YSSY (SYDNEY in AUSTRALIA) (IATA:SYD) | Meteo·Mobile Aviation Weather
aviador You're here:

YSSY Decoded Metar

SYDNEY in AUSTRALIA
Report Time2019-01-18 12:00:00
UTC Time2019-01-18 12:25:09
Flight Rules vfr VFR
Wind190° at 19 kt
W.Decomp.*RWY 16: 18.1 kt HW 5.9 kt RCW
RWY 25: 5.9 kt HW 18.1 kt LCW
W.Rank190° ranks 7
Current wind is above 190° avg. (14.8)
Visibility9999 m
Phenomena:N/A
Clouds:N/A
Expected CloudBase > 2,400 ft AGL from Temp-Dew spread
CeilingNone
Temp27°C (ISA +12)
Dew Point21°C (70% RH)
Heat Index28.9°C
AAT24.4°C
QNH1010 hPa
Density Alt1,824 ft
Elevation10 ft
Report Wrong Elevation
Raw Report
METAR YSSY 181200Z 19019KT CAVOK 27/21 Q1010
FM1400 18010KT CAVOK=

Extra information for YSSY:More info

Metar Taf Metar & Taf Last 4 Metars F.Rules Stats Wind Profile Meteogram Temp Stats Airport Information Weather charts Add Link Nearby VenuesMetar ALERT Operation Metar Decoded Social comments